Rome Ciampino, Italy

11:35 AM CEST on August 29, 2016 (GMT +0200)
Cecchignola | | Change Station

Elev 197 ft 41.82 °N, 12.50 °E | Updated 1 minute ago

Clear
Clear
81.9 °F
Feels Like 83 °F
N
0.0
Wind Variable Wind from East
Gusts 2.0 mph

Today
High -- | Low -- °F
--% Chance of Precip.
Yesterday
High -- | Low -- °F
Precip. -- in
Pressure 30.04 in
Visibility -9999.0 miles
Clouds
Heat Index 83 °F
Dew Point 62 °F
Humidity 51%
Rainfall 0.00 in
Snow Depth Not available.
6:32 AM 7:47 PM
Waning Crescent, 10% visible
METAR LIRE 290855Z 24007KT CAVOK 27/20 Q1017 RMK SKC VIS MIN 9999 WIND THR13 26008KT WIND THR31 25008KT BLU
Pressure 30.04 in
Visibility -9999.0 miles
Clouds
Heat Index 83 °F
Dew Point 62 °F
Humidity 51%
Rainfall 0.00 in
Snow Depth Not available.
6:32 AM 7:47 PM
Waning Crescent, 10% visible
METAR LIRE 290855Z 24007KT CAVOK 27/20 Q1017 RMK SKC VIS MIN 9999 WIND THR13 26008KT WIND THR31 25008KT BLU

10-Day Weather Forecast

×

Almanac

Astronomy

Aug. 29, 2016 Rise Set
Actual Time
Civil Twilight
Nautical Twilight
Astronomical Twilight
Moon
Length of Visible Light
Length of Day
Tomorrow will be .
, % of the Moon is Illuminated

Today's Extremes

Country Highs Country Lows

Community

WunderPhotos

Upload Photos

1,935,798 photos uploaded!

WunderBlog® & News

Nearby

Air Quality

  Air Quality AQ Index Pollutant
Not available.

Snow Depth

Station Depth Elevation

Earthquake Activity

City Distance Mag. Time & Date
Minimum magnitude displayed is 2.5.

Coastal Water Temperatures

Place Temperature

Stations

Nearby Weather Stations

Station Location Temp. Windchill Dew Point Humidity Wind Precip. Elev Updated Type